Time;durP1;ratioP1;P1;durP2;ratioP2;P2;SDS_P1;SDS_P2;PMS_P1;PMS_P2;Temp;Humidity;BMP_temperature;BMP_pressure;BME280_temperature;BME280_humidity;BME280_pressure;Samples;Min_cycle;Max_cycle;Signal;HPM_P1;HPM_P2
2021/04/24 03:00:38;;;;;;;2.83;1.70;;;;;;;6.45;100.00;100047.64;1773326;78;66620;-76
2021/04/24 03:03:12;;;;;;;3.95;1.80;;;;;;;6.39;100.00;100052.16;1808089;78;21191;-75
2021/04/24 03:05:41;;;;;;;2.70;1.32;;;;;;;6.36;100.00;100056.36;1811646;79;21233;-77
2021/04/24 03:08:10;;;;;;;3.40;1.87;;;;;;;6.31;100.00;100062.51;1811266;79;21126;-76
2021/04/24 03:10:39;;;;;;;4.40;2.02;;;;;;;6.27;100.00;100072.38;1807282;79;21051;-76
2021/04/24 03:13:08;;;;;;;3.22;1.85;;;;;;;6.25;100.00;100078.67;1795374;77;21099;-74
2021/04/24 03:15:36;;;;;;;3.20;2.08;;;;;;;6.24;100.00;100088.22;1808991;78;21456;-77
2021/04/24 03:18:05;;;;;;;4.08;1.98;;;;;;;6.25;100.00;100094.20;1824445;77;21315;-75
2021/04/24 03:20:32;;;;;;;2.35;1.60;;;;;;;6.25;100.00;100092.45;1827500;77;21036;-74
2021/04/24 03:23:03;;;;;;;3.62;1.40;;;;;;;6.26;100.00;100091.95;1816711;78;21147;-79
2021/04/24 03:25:30;;;;;;;3.30;1.52;;;;;;;6.24;100.00;100093.39;1805675;77;21182;-76
2021/04/24 03:27:58;;;;;;;2.42;1.50;;;;;;;6.22;100.00;100101.81;1815786;77;21178;-78
2021/04/24 03:30:28;;;;;;;4.20;1.62;;;;;;;6.20;100.00;100108.91;1821178;77;21558;-78
2021/04/24 03:32:55;;;;;;;3.85;1.60;;;;;;;6.20;100.00;100119.76;1817994;77;20890;-76
2021/04/24 03:35:24;;;;;;;2.37;1.20;;;;;;;6.20;100.00;100119.27;1815525;77;21110;-77
2021/04/24 03:37:52;;;;;;;2.92;1.45;;;;;;;6.22;100.00;100123.81;1803433;78;21496;-76
2021/04/24 03:40:19;;;;;;;3.45;2.20;;;;;;;6.24;100.00;100123.65;1815676;77;21124;-75
2021/04/24 03:42:48;;;;;;;2.70;1.30;;;;;;;6.27;100.00;100128.02;1811020;77;23641;-76
2021/04/24 03:45:21;;;;;;;3.27;2.00;;;;;;;6.30;100.00;100129.50;1750449;80;21626;-74
2021/04/24 03:47:55;;;;;;;4.15;1.80;;;;;;;6.38;100.00;100130.00;1812697;77;21492;-75
2021/04/24 03:50:24;;;;;;;4.42;1.90;;;;;;;6.47;100.00;100133.72;1817135;77;21533;-76
2021/04/24 03:52:53;;;;;;;3.47;1.37;;;;;;;6.57;100.00;100126.62;1781692;79;21122;-77
2021/04/24 03:55:22;;;;;;;3.33;1.82;;;;;;;6.67;100.00;100130.38;1792098;79;21354;-76
2021/04/24 03:57:51;;;;;;;2.70;1.52;;;;;;;6.81;100.00;100128.91;1786194;79;21594;-76
2021/04/24 04:00:21;;;;;;;2.62;1.57;;;;;;;6.98;100.00;100137.02;1785864;79;21207;-78
2021/04/24 04:02:57;;;;;;;2.85;1.80;;;;;;;7.13;100.00;100138.95;1764940;80;21196;-74
2021/04/24 04:05:40;;;;;;;2.65;1.55;;;;;;;7.25;100.00;100142.83;1772372;79;21196;-77
2021/04/24 04:08:10;;;;;;;2.90;1.85;;;;;;;7.33;100.00;100145.90;1772822;79;22280;-75
2021/04/24 04:10:41;;;;;;;3.42;1.70;;;;;;;7.33;100.00;100154.48;1774008;79;21143;-75
2021/04/24 04:13:09;;;;;;;2.75;1.57;;;;;;;7.32;100.00;100159.36;1740878;80;21623;-76
2021/04/24 04:15:37;;;;;;;2.33;1.65;;;;;;;7.29;100.00;100163.56;1773589;79;21459;-74
2021/04/24 04:18:17;;;;;;;2.77;1.52;;;;;;;7.23;100.00;100168.09;1768021;79;21416;-75
2021/04/24 04:20:51;;;;;;;3.17;1.40;;;;;;;7.12;100.00;100163.23;1771396;79;21261;-74
2021/04/24 04:23:22;;;;;;;2.65;1.50;;;;;;;7.00;100.00;100164.86;1768381;79;21202;-75
2021/04/24 04:25:51;;;;;;;3.02;1.35;;;;;;;6.96;100.00;100171.34;1772358;79;21199;-75
2021/04/24 04:28:19;;;;;;;2.45;1.25;;;;;;;6.92;100.00;100166.65;1770169;79;21002;-75
2021/04/24 04:30:48;;;;;;;4.25;1.40;;;;;;;6.88;100.00;100171.83;1773561;79;21066;-75
2021/04/24 04:33:17;;;;;;;3.95;1.50;;;;;;;6.85;100.00;100172.14;1772660;80;21234;-71
2021/04/24 04:35:45;;;;;;;2.00;1.20;;;;;;;6.84;100.00;100176.52;1762196;79;21225;-71
2021/04/24 04:38:13;;;;;;;3.77;1.50;;;;;;;6.85;100.00;100174.25;1774311;79;21124;-75
2021/04/24 04:40:42;;;;;;;3.42;1.55;;;;;;;6.90;100.00;100178.97;1774097;79;21598;-74
2021/04/24 04:43:10;;;;;;;3.98;1.22;;;;;;;6.97;100.00;100183.80;1763661;79;21267;-75
2021/04/24 04:45:38;;;;;;;2.40;1.45;;;;;;;7.00;100.00;100181.70;1764662;79;21452;-74
2021/04/24 04:48:06;;;;;;;2.90;1.50;;;;;;;7.07;100.00;100177.98;1768677;79;21145;-74
2021/04/24 04:50:37;;;;;;;2.40;1.57;;;;;;;7.18;100.00;100187.23;1766676;79;21117;-74
2021/04/24 04:53:06;;;;;;;2.92;1.27;;;;;;;7.28;100.00;100178.80;1772094;79;21140;-74
2021/04/24 04:55:35;;;;;;;4.92;2.42;;;;;;;7.40;100.00;100184.46;1773090;79;21521;-74
2021/04/24 04:58:03;;;;;;;2.65;1.40;;;;;;;7.54;100.00;100179.42;1773436;79;22165;-72
2021/04/24 05:00:31;;;;;;;3.33;1.77;;;;;;;7.66;100.00;100189.45;1773988;79;21184;-75
2021/04/24 05:03:00;;;;;;;2.65;1.47;;;;;;;7.74;100.00;100185.53;1772886;79;21123;-77
2021/04/24 05:05:28;;;;;;;3.35;1.70;;;;;;;7.77;100.00;100182.61;1756598;79;21121;-74
2021/04/24 05:07:57;;;;;;;3.67;1.57;;;;;;;7.75;100.00;100198.83;1769805;79;21473;-75
2021/04/24 05:10:26;;;;;;;3.58;1.85;;;;;;;7.69;100.00;100202.07;1772703;79;21362;-74
2021/04/24 05:12:54;;;;;;;3.55;2.17;;;;;;;7.63;100.00;100201.45;1772535;79;21156;-74
2021/04/24 05:15:22;;;;;;;2.72;1.67;;;;;;;7.54;100.00;100208.44;1773793;79;21249;-77
2021/04/24 05:17:51;;;;;;;2.77;1.60;;;;;;;7.48;100.00;100196.92;1773048;79;21161;-75
2021/04/24 05:20:19;;;;;;;2.70;1.42;;;;;;;7.48;100.00;100204.70;1771709;79;21508;-76
2021/04/24 05:22:47;;;;;;;3.17;1.42;;;;;;;7.57;100.00;100209.39;1774423;79;22488;-75
2021/04/24 05:25:16;;;;;;;2.95;1.42;;;;;;;7.69;100.00;100213.28;1772205;80;21674;-77
2021/04/24 05:27:46;;;;;;;3.05;1.70;;;;;;;7.86;100.00;100212.74;1772834;79;21117;-75
2021/04/24 05:30:16;;;;;;;3.17;1.67;;;;;;;8.07;100.00;100212.67;1772915;79;21594;-78
2021/04/24 05:32:44;;;;;;;3.27;1.75;;;;;;;8.40;100.00;100215.48;1771186;79;21662;-74
2021/04/24 05:35:14;;;;;;;3.97;1.60;;;;;;;9.03;100.00;100211.56;1750198;79;21560;-78
2021/04/24 05:37:42;;;;;;;4.10;1.23;;;;;;;9.64;100.00;100211.03;1757264;79;21453;-77
2021/04/24 05:40:11;;;;;;;2.83;1.30;;;;;;;10.21;100.00;100198.19;1776212;79;21412;-70
2021/04/24 05:42:38;;;;;;;3.13;1.10;;;;;;;11.00;100.00;100196.14;1777881;79;21184;-74
2021/04/24 05:45:11;;;;;;;2.50;1.60;;;;;;;11.86;100.00;100195.50;1780472;79;21962;-75
2021/04/24 05:47:45;;;;;;;5.23;1.53;;;;;;;12.37;100.00;100189.88;1769646;79;21754;-77
2021/04/24 05:50:15;;;;;;;3.37;1.23;;;;;;;12.48;100.00;100189.81;1777961;79;21637;-78
2021/04/24 05:52:42;;;;;;;2.13;1.37;;;;;;;12.67;100.00;100189.56;1770916;79;21101;-72
2021/04/24 05:55:14;;;;;;;3.97;1.43;;;;;;;13.19;100.00;100195.06;1767660;79;22172;-74
2021/04/24 05:57:42;;;;;;;4.87;1.60;;;;;;;13.77;100.00;100189.98;1769181;79;21532;-75
2021/04/24 06:00:15;;;;;;;3.57;1.10;;;;;;;14.09;100.00;100189.09;1773627;79;21169;-74
2021/04/24 06:02:43;;;;;;;2.13;1.13;;;;;;;14.33;100.00;100197.25;1773816;79;21172;-74
2021/04/24 06:05:12;;;;;;;2.87;1.30;;;;;;;14.58;100.00;100201.27;1767149;79;21486;-75
2021/04/24 06:07:40;;;;;;;3.53;1.40;;;;;;;14.74;100.00;100206.05;1768374;79;21053;-73
2021/04/24 06:10:14;;;;;;;4.10;1.37;;;;;;;15.05;100.00;100199.17;1775433;79;21485;-73
2021/04/24 06:12:49;;;;;;;3.47;1.13;;;;;;;15.42;100.00;100198.77;1762793;80;21211;-77
2021/04/24 06:15:21;;;;;;;2.93;1.17;;;;;;;15.48;100.00;100205.77;1733717;81;21615;-75
2021/04/24 06:17:53;;;;;;;2.57;1.20;;;;;;;15.57;100.00;100199.23;1762759;79;21021;-75
2021/04/24 06:20:23;;;;;;;3.27;1.30;;;;;;;15.73;100.00;100209.71;1763623;79;21120;-74
2021/04/24 06:22:51;;;;;;;3.03;1.20;;;;;;;15.91;100.00;100209.41;1803789;79;21163;-76
2021/04/24 06:25:19;;;;;;;3.93;1.33;;;;;;;16.23;100.00;100216.13;1804254;79;21364;-77
2021/04/24 06:27:48;;;;;;;3.60;1.43;;;;;;;16.29;94.97;100210.00;1797211;79;21063;-74
2021/04/24 06:30:18;;;;;;;3.03;1.20;;;;;;;16.08;88.31;100217.02;1784076;79;21547;-74
2021/04/24 06:32:47;;;;;;;2.47;1.40;;;;;;;15.76;91.63;100217.17;1800020;79;21060;-76
2021/04/24 06:35:15;;;;;;;4.83;1.30;;;;;;;15.60;91.38;100217.68;1801730;79;21190;-72
2021/04/24 06:37:43;;;;;;;3.00;1.43;;;;;;;15.48;95.57;100225.47;1781955;79;22246;-73
2021/04/24 06:40:13;;;;;;;3.97;1.40;;;;;;;15.34;92.89;100223.97;1783984;79;21230;-74
2021/04/24 06:42:42;;;;;;;3.87;1.57;;;;;;;15.34;87.49;100222.66;1797440;79;21175;-73
2021/04/24 06:45:11;;;;;;;2.73;1.40;;;;;;;15.42;88.39;100221.58;1799315;79;22500;-73
2021/04/24 06:47:39;;;;;;;3.33;1.47;;;;;;;15.39;85.47;100216.27;1790433;79;21006;-73
2021/04/24 06:50:09;;;;;;;2.90;1.20;;;;;;;15.48;89.46;100212.34;1804249;79;22021;-73
2021/04/24 06:52:37;;;;;;;3.13;1.40;;;;;;;15.87;92.41;100207.73;1801793;79;20981;-73
2021/04/24 06:55:06;;;;;;;4.73;1.40;;;;;;;16.46;87.95;100203.59;1801096;79;21535;-72
2021/04/24 06:57:34;;;;;;;4.47;2.07;;;;;;;17.03;76.80;100209.80;1792432;79;21107;-73
2021/04/24 07:00:07;;;;;;;2.73;1.40;;;;;;;17.53;66.70;100210.69;1788946;79;21091;-72
2021/04/24 07:02:35;;;;;;;3.43;1.50;;;;;;;17.99;60.54;100204.61;1787903;78;21857;-73
2021/04/24 07:05:05;;;;;;;3.97;1.90;;;;;;;18.39;61.72;100206.42;1806752;77;21578;-74
2021/04/24 07:07:32;;;;;;;4.00;1.30;;;;;;;18.90;55.43;100203.91;1770536;79;21157;-73
2021/04/24 07:10:01;;;;;;;3.23;1.67;;;;;;;19.18;48.88;100208.33;1790764;79;21179;-73
2021/04/24 07:12:29;;;;;;;4.63;1.43;;;;;;;18.81;48.43;100216.70;1802997;78;21097;-73
2021/04/24 07:14:59;;;;;;;4.77;1.90;;;;;;;18.22;51.02;100215.62;1785553;79;21236;-73
2021/04/24 07:17:27;;;;;;;4.23;1.90;;;;;;;17.98;51.30;100216.70;1787546;79;21129;-73
2021/04/24 07:19:56;;;;;;;4.60;1.87;;;;;;;18.04;54.53;100225.02;1779860;79;20989;-71
2021/04/24 07:22:24;;;;;;;4.10;2.40;;;;;;;18.40;53.24;100215.14;1781765;78;21133;-73
2021/04/24 07:24:53;;;;;;;5.87;2.53;;;;;;;18.84;48.12;100210.16;1776241;79;21647;-73
2021/04/24 07:27:21;;;;;;;5.30;2.50;;;;;;;19.10;44.60;100204.25;1775253;79;22246;-75
2021/04/24 07:29:50;;;;;;;6.43;2.40;;;;;;;19.05;44.02;100204.16;1780639;79;22309;-73
2021/04/24 07:32:19;;;;;;;4.27;2.70;;;;;;;18.56;43.50;100212.27;1778686;79;21120;-73
2021/04/24 07:34:47;;;;;;;4.60;2.70;;;;;;;17.64;47.06;100223.07;1780583;79;21455;-72
2021/04/24 07:37:15;;;;;;;4.47;2.60;;;;;;;16.58;59.96;100237.05;1778423;79;21133;-72
2021/04/24 07:39:43;;;;;;;7.23;3.07;;;;;;;15.46;84.99;100242.48;1780685;79;21186;-72
2021/04/24 07:42:10;;;;;;;6.23;3.83;;;;;;;14.51;100.00;100250.37;1778392;79;21168;-73
2021/04/24 07:44:40;;;;;;;8.60;4.10;;;;;;;14.00;100.00;100258.45;1779072;79;20999;-71
2021/04/24 07:47:08;;;;;;;7.40;4.80;;;;;;;14.15;100.00;100251.66;1779435;79;21001;-71
2021/04/24 07:49:38;;;;;;;5.87;4.40;;;;;;;14.45;100.00;100245.91;1777311;79;21219;-72
2021/04/24 07:52:08;;;;;;;7.00;5.20;;;;;;;14.44;100.00;100258.23;1767014;79;21195;-73
2021/04/24 07:54:42;;;;;;;8.57;6.43;;;;;;;14.07;100.00;100251.38;1778139;79;21227;-70
2021/04/24 07:57:14;;;;;;;8.15;6.15;;;;;;;13.68;100.00;100260.13;1779469;79;21133;-71
2021/04/24 07:59:43;;;;;;;9.23;6.80;;;;;;;13.53;100.00;100273.94;1778128;79;21034;-72
2021/04/24 08:02:14;;;;;;;8.67;6.50;;;;;;;13.54;100.00;100267.18;1779224;79;21651;-72
2021/04/24 08:04:42;;;;;;;;;;;;;;;13.55;100.00;100262.74;1785194;78;21186;-70
2021/04/24 08:07:10;;;;;;;6.83;5.20;;;;;;;13.73;100.00;100259.01;1775331;79;20496;-71
2021/04/24 08:09:39;;;;;;;10.17;5.33;;;;;;;14.24;100.00;100257.48;1782068;78;21635;-71
2021/04/24 08:12:08;;;;;;;7.47;5.60;;;;;;;14.86;100.00;100244.73;1769496;79;21132;-73
2021/04/24 08:14:36;;;;;;;7.53;5.43;;;;;;;15.13;89.93;100249.30;1793356;79;21180;-72
2021/04/24 08:17:05;;;;;;;7.27;5.43;;;;;;;14.87;84.79;100256.83;1774604;78;21207;-72
2021/04/24 08:19:33;;;;;;;7.03;6.20;;;;;;;14.43;92.75;100272.84;1779426;79;21004;-80
2021/04/24 08:22:01;;;;;;;9.33;6.50;;;;;;;13.84;100.00;100289.83;1774900;79;21635;-73
2021/04/24 08:24:32;;;;;;;9.23;6.50;;;;;;;13.12;100.00;100286.66;1772523;79;21204;-69
2021/04/24 08:27:07;;;;;;;10.57;6.83;;;;;;;12.52;100.00;100287.77;1775261;79;21018;-72
2021/04/24 08:29:36;;;;;;;8.47;6.70;;;;;;;12.27;100.00;100284.83;1775302;79;21248;-75
2021/04/24 08:32:08;;;;;;;7.60;5.73;;;;;;;12.64;100.00;100279.67;1780894;79;21089;-71
2021/04/24 08:34:37;;;;;;;8.77;5.23;;;;;;;13.14;100.00;100278.92;1779028;79;21086;-72
2021/04/24 08:37:08;;;;;;;8.80;4.80;;;;;;;13.66;100.00;100273.92;1775819;79;21133;-69
2021/04/24 08:39:40;;;;;;;6.17;4.03;;;;;;;14.12;100.00;100269.11;1779569;79;20935;-73
2021/04/24 08:42:15;;;;;;;5.93;3.80;;;;;;;14.65;96.34;100261.08;1754312;79;21231;-73
2021/04/24 08:44:43;;;;;;;6.83;3.75;;;;;;;15.37;80.92;100250.33;1775237;79;21170;-71
2021/04/24 08:47:12;;;;;;;7.17;4.30;;;;;;;15.68;63.61;100259.50;1778679;79;21124;-73
2021/04/24 08:49:41;;;;;;;5.73;3.33;;;;;;;15.83;61.08;100260.96;1769209;79;21186;-73
2021/04/24 08:52:09;;;;;;;6.27;4.23;;;;;;;15.92;60.72;100261.79;1772986;79;21816;-73
2021/04/24 08:54:43;;;;;;;7.30;4.13;;;;;;;15.96;58.70;100285.82;1772650;78;21219;-71
2021/04/24 08:57:16;;;;;;;6.03;3.30;;;;;;;15.64;54.93;100274.03;1753150;79;21053;-72
2021/04/24 08:59:44;;;;;;;5.67;3.57;;;;;;;15.13;57.02;100275.05;1781901;79;21563;-72
2021/04/24 09:02:13;;;;;;;6.20;3.27;;;;;;;14.99;61.44;100276.14;1781876;79;21563;-71
2021/04/24 09:04:41;;;;;;;7.53;3.13;;;;;;;15.29;63.52;100267.95;1779500;78;21568;-74
2021/04/24 09:07:11;;;;;;;4.17;2.40;;;;;;;15.61;52.47;100271.03;1750590;79;39427;-73
2021/04/24 09:09:40;;;;;;;6.23;3.03;;;;;;;15.72;47.64;100275.13;1778954;79;21232;-72
2021/04/24 09:15:16;;;;;;;4.60;2.97;;;;;;;16.36;48.85;100268.28;1806251;77;22848;-70
2021/04/24 09:17:54;;;;;;;4.22;2.17;;;;;;;16.61;43.67;100265.56;1816848;78;20871;-72
2021/04/24 09:20:28;;;;;;;4.33;2.40;;;;;;;16.75;43.34;100264.39;1811528;78;21425;-77
2021/04/24 09:23:05;;;;;;;6.57;2.70;;;;;;;16.76;40.82;100266.79;1813080;78;20933;-71
2021/04/24 09:25:41;;;;;;;5.63;2.27;;;;;;;16.55;40.23;100263.28;1809524;78;21000;-70
2021/04/24 09:28:12;;;;;;;6.07;2.63;;;;;;;16.19;41.21;100271.52;1804158;78;20926;-71
2021/04/24 09:30:41;;;;;;;5.93;2.57;;;;;;;16.18;42.32;100267.80;1807907;78;20974;-73
2021/04/24 09:33:12;;;;;;;6.33;2.17;;;;;;;16.16;40.75;100272.46;1807342;78;21364;-70
2021/04/24 09:35:47;;;;;;;3.47;1.50;;;;;;;15.91;39.77;100273.81;1806389;78;21021;-69
2021/04/24 09:38:44;;;;;;;2.77;1.47;;;;;;;15.57;40.19;100268.86;1804856;78;21096;-72
2021/04/24 09:41:25;;;;;;;4.13;2.03;;;;;;;15.25;41.93;100275.96;1806340;78;20986;-71
2021/04/24 09:44:11;;;;;;;3.47;1.70;;;;;;;15.06;44.15;100280.84;1761036;78;21508;-73
2021/04/24 09:46:59;;;;;;;3.43;1.70;;;;;;;14.90;44.62;100268.23;1811874;78;21246;-72
2021/04/24 09:49:37;;;;;;;3.90;1.35;;;;;;;14.83;41.49;100270.38;1807126;78;21682;-75
2021/04/24 09:52:09;;;;;;;4.07;1.20;;;;;;;14.99;39.80;100269.06;1814581;78;21543;-74
2021/04/24 09:54:47;;;;;;;4.15;1.37;;;;;;;15.51;37.90;100262.34;1808648;78;21225;-72
2021/04/24 09:57:21;;;;;;;4.97;1.80;;;;;;;16.03;35.76;100262.89;1805716;78;21195;-77
2021/04/24 09:59:55;;;;;;;4.60;1.53;;;;;;;16.34;34.96;100261.14;1799050;78;21238;-70
2021/04/24 10:02:41;;;;;;;2.63;1.10;;;;;;;16.49;35.34;100251.03;1802747;78;21535;-71
2021/04/24 10:05:19;;;;;;;1.87;0.90;;;;;;;16.76;35.45;100261.53;1803004;78;22423;-70
2021/04/24 10:07:50;;;;;;;2.80;1.07;;;;;;;16.97;32.76;100252.83;1808810;78;21075;-71
2021/04/24 10:10:33;;;;;;;2.33;1.00;;;;;;;16.92;32.82;100270.63;1799457;78;21072;-71
2021/04/24 10:13:06;;;;;;;2.73;1.20;;;;;;;16.92;33.59;100260.09;1805689;78;22342;-71
2021/04/24 10:15:46;;;;;;;2.27;1.00;;;;;;;16.94;34.47;100271.73;1785453;79;21133;-69
2021/04/24 10:18:16;;;;;;;2.40;1.07;;;;;;;16.98;34.04;100272.37;1800684;79;20983;-75
2021/04/24 10:20:46;;;;;;;1.73;1.00;;;;;;;17.04;34.57;100275.92;1793027;79;21510;-71
2021/04/24 10:23:15;;;;;;;1.80;0.93;;;;;;;17.24;33.89;100276.96;1796237;79;21555;-73
2021/04/24 10:25:44;;;;;;;1.93;1.00;;;;;;;17.41;33.22;100263.39;1805295;79;21248;-74
2021/04/24 10:28:12;;;;;;;1.57;0.80;;;;;;;17.52;32.26;100267.08;1792919;79;21208;-74
2021/04/24 10:30:40;;;;;;;2.60;0.77;;;;;;;17.60;31.64;100274.64;1798297;79;21937;-72
2021/04/24 10:33:08;;;;;;;2.40;0.97;;;;;;;17.77;29.63;100280.08;1801033;79;21563;-70
2021/04/24 10:35:36;;;;;;;3.40;0.87;;;;;;;17.86;29.92;100285.80;1794035;79;20979;-71
2021/04/24 10:38:06;;;;;;;3.13;1.20;;;;;;;17.69;29.66;100283.00;1799797;79;21250;-71
2021/04/24 10:40:46;;;;;;;2.70;1.30;;;;;;;17.23;30.36;100290.63;1781376;78;21590;-72
2021/04/24 10:43:22;;;;;;;2.33;0.90;;;;;;;16.65;30.24;100299.10;1758213;80;21026;-73
2021/04/24 10:45:50;;;;;;;2.20;0.83;;;;;;;15.98;30.96;100302.16;1796211;79;21018;-74
2021/04/24 10:48:25;;;;;;;1.73;0.80;;;;;;;15.50;32.36;100304.09;1766731;79;21199;-72
2021/04/24 10:50:56;;;;;;;2.17;1.00;;;;;;;15.25;33.29;100302.22;1785296;79;21022;-72
2021/04/24 10:53:30;;;;;;;2.87;1.30;;;;;;;15.03;34.36;100301.75;1746686;81;21664;-72
2021/04/24 10:56:01;;;;;;;2.57;1.20;;;;;;;14.99;35.57;100295.31;1750125;81;21392;-73
2021/04/24 10:58:31;;;;;;;4.90;1.37;;;;;;;15.20;35.74;100296.02;1795703;79;21729;-72
2021/04/24 11:01:04;;;;;;;2.87;1.17;;;;;;;15.31;34.89;100293.51;1764500;79;21013;-74
2021/04/24 11:03:51;;;;;;;3.07;1.13;;;;;;;15.38;35.47;100292.64;1784654;79;21368;-70
2021/04/24 11:06:23;;;;;;;3.07;0.97;;;;;;;15.53;35.29;100297.89;1800536;79;21140;-70
2021/04/24 11:09:11;;;;;;;;;;;;;;;15.53;33.16;100297.06;1798933;79;21119;-72
2021/04/24 11:11:40;;;;;;;2.90;1.20;;;;;;;15.42;33.72;100291.19;1783085;79;20726;-71
2021/04/24 11:14:08;;;;;;;3.53;1.03;;;;;;;15.44;33.43;100302.30;1774143;79;21156;-68
2021/04/24 11:16:36;;;;;;;3.97;1.40;;;;;;;15.28;32.82;100299.18;1690825;80;21446;-71
2021/04/24 11:19:05;;;;;;;2.90;1.47;;;;;;;14.98;33.69;100304.21;1719870;81;21163;-75
2021/04/24 11:21:34;;;;;;;1.83;1.00;;;;;;;14.94;35.25;100291.72;1728500;82;21487;-69
2021/04/24 11:24:14;;;;;;;1.93;0.83;;;;;;;14.92;35.20;100297.67;1742392;82;21627;-71
2021/04/24 11:26:46;;;;;;;2.50;0.87;;;;;;;14.72;34.97;100293.84;1732987;82;21156;-74
2021/04/24 11:29:23;;;;;;;2.70;1.10;;;;;;;14.49;34.59;100298.25;1711743;82;21611;-70
2021/04/24 11:32:02;;;;;;;1.63;0.93;;;;;;;14.22;35.18;100304.09;1712101;83;21177;-70
2021/04/24 11:34:43;;;;;;;2.63;1.00;;;;;;;14.15;37.34;100302.78;1713707;83;21178;-75
2021/04/24 11:37:31;;;;;;;2.33;0.80;;;;;;;14.41;36.85;100302.42;1703027;83;21200;-72
2021/04/24 11:40:13;;;;;;;8.80;1.20;;;;;;;14.68;35.86;100285.59;1713276;83;20951;-73
2021/04/24 11:43:01;;;;;;;;;;;;;;;14.78;35.37;100297.77;1735435;82;22266;-73
2021/04/24 11:45:49;;;;;;;2.83;1.10;;;;;;;14.79;34.45;100295.42;1713835;82;20247;-73
2021/04/24 11:48:40;;;;;;;4.20;1.20;;;;;;;14.60;33.83;100302.38;1722935;82;21077;-71
2021/04/24 11:51:08;;;;;;;7.05;1.32;;;;;;;14.27;34.99;100301.13;1700059;82;21567;-74
2021/04/24 11:53:48;;;;;;;3.60;1.30;;;;;;;13.87;36.21;100313.52;1682381;82;21239;-72
2021/04/24 11:56:16;;;;;;;4.27;1.60;;;;;;;13.54;37.15;100327.41;1703103;83;21394;-70
2021/04/24 11:58:45;;;;;;;4.07;1.77;;;;;;;13.23;38.53;100327.16;1707420;83;20971;-75
2021/04/24 12:01:25;;;;;;;5.70;2.17;;;;;;;12.81;41.64;100324.62;1712091;82;21011;-70
2021/04/24 12:03:54;;;;;;;5.13;1.77;;;;;;;12.81;41.64;100324.62;1729028;82;21282;-70
2021/04/24 12:06:42;;;;;;;4.53;1.40;;;;;;;12.81;42.94;100331.16;1725263;82;21173;-70
2021/04/24 12:09:13;;;;;;;2.43;1.30;;;;;;;12.89;43.71;100328.36;1712632;82;21324;-72
2021/04/24 12:11:54;;;;;;;4.33;1.10;;;;;;;13.24;44.15;100318.31;1713614;82;21207;-73
2021/04/24 12:14:26;;;;;;;4.73;1.50;;;;;;;13.74;43.49;100319.55;1728669;81;20935;-71
2021/04/24 12:16:55;;;;;;;2.47;1.07;;;;;;;14.21;40.23;100314.28;1732588;81;21901;-73
2021/04/24 12:19:33;;;;;;;2.40;1.10;;;;;;;14.44;40.14;100320.38;1713998;83;22665;-71
2021/04/24 12:22:13;;;;;;;2.83;1.13;;;;;;;14.55;39.18;100304.83;1733579;81;21974;-71
2021/04/24 12:25:08;;;;;;;3.10;1.10;;;;;;;14.44;39.01;100308.57;1735140;81;21125;-75
2021/04/24 12:27:48;;;;;;;2.20;1.13;;;;;;;14.16;39.01;100311.45;1646449;85;22312;-75
2021/04/24 12:30:26;;;;;;;4.77;1.50;;;;;;;13.97;40.40;100313.09;1803174;76;27849;-69
2021/04/24 12:33:06;;;;;;;2.70;1.30;;;;;;;13.88;40.77;100312.50;1811141;79;21007;-70
2021/04/24 12:35:49;;;;;;;2.70;1.53;;;;;;;13.82;42.06;100302.83;1778823;79;22355;-71
2021/04/24 12:38:22;;;;;;;2.70;1.53;;;;;;;13.91;43.61;100295.58;1797440;77;21087;-69
2021/04/24 12:40:54;;;;;;;3.17;1.60;;;;;;;14.12;41.80;100307.12;1792931;79;21385;-72
2021/04/24 12:43:26;;;;;;;3.43;1.20;;;;;;;14.10;41.28;100304.72;1805915;77;21365;-72
2021/04/24 12:45:57;;;;;;;2.23;1.27;;;;;;;14.06;42.33;100312.69;1791168;77;21639;-72
2021/04/24 12:48:36;;;;;;;4.20;1.82;;;;;;;14.18;42.28;100312.06;1794374;78;21200;-71
2021/04/24 12:51:05;;;;;;;4.80;1.50;;;;;;;14.36;42.25;100309.60;1792661;77;21294;-71
2021/04/24 12:53:40;;;;;;;3.60;1.77;;;;;;;14.53;41.03;100326.51;1801593;77;20972;-74
2021/04/24 12:56:22;;;;;;;3.43;1.53;;;;;;;14.34;41.86;100324.72;1801385;77;21503;-72
2021/04/24 12:58:54;;;;;;;2.52;1.45;;;;;;;14.04;43.20;100340.91;1801627;77;22437;-70
2021/04/24 13:01:25;;;;;;;3.87;1.67;;;;;;;13.70;44.72;100342.44;1806876;78;21260;-73
2021/04/24 13:03:55;;;;;;;4.20;1.93;;;;;;;13.24;47.18;100351.03;1732779;80;21206;-70
2021/04/24 13:06:26;;;;;;;;;;;;;;;12.73;50.80;100357.95;1746743;79;21010;-72
2021/04/24 13:09:19;;;;;;;6.27;1.90;;;;;;;12.01;64.65;100378.73;1739339;79;20262;-73
2021/04/24 13:11:55;;;;;;;4.93;1.93;;;;;;;12.01;64.65;100378.73;1746662;79;21893;-75
2021/04/24 13:14:26;;;;;;;7.23;2.03;;;;;;;11.64;75.57;100380.61;1758159;79;21887;-72
2021/04/24 13:16:55;;;;;;;6.85;2.20;;;;;;;11.24;81.87;100403.68;1767752;79;21762;-70
2021/04/24 13:19:25;;;;;;;11.87;4.33;;;;;;;10.92;83.62;100421.37;1765185;78;21125;-71
2021/04/24 13:21:55;;;;;;;4.33;1.90;;;;;;;10.59;86.49;100418.30;1764557;78;22179;-69
2021/04/24 13:24:24;;;;;;;4.67;1.60;;;;;;;10.38;90.47;100419.02;1757814;79;21508;-70
2021/04/24 13:27:00;;;;;;;7.80;3.47;;;;;;;10.32;96.94;100424.92;1748296;80;22262;-69
2021/04/24 13:29:43;;;;;;;3.73;1.60;;;;;;;10.28;100.00;100426.77;1750099;80;21461;-71
2021/04/24 13:32:12;;;;;;;4.57;2.57;;;;;;;10.20;100.00;100431.02;1735896;80;21335;-72
2021/04/24 13:34:47;;;;;;;4.80;2.40;;;;;;;10.13;100.00;100438.42;1747398;80;21297;-72
2021/04/24 13:37:21;;;;;;;5.10;2.30;;;;;;;10.12;100.00;100440.71;1737408;80;21832;-71
2021/04/24 13:40:01;;;;;;;2.80;1.80;;;;;;;10.14;100.00;100436.13;1735050;79;22237;-69
2021/04/24 13:42:39;;;;;;;3.23;2.10;;;;;;;10.15;100.00;100426.01;1737731;80;21591;-71
2021/04/24 13:45:13;;;;;;;3.33;1.63;;;;;;;10.20;98.61;100422.41;1726026;80;21853;-73
2021/04/24 13:47:47;;;;;;;4.23;1.83;;;;;;;10.32;94.60;100417.60;1740497;80;21336;-70
2021/04/24 13:50:17;;;;;;;2.90;1.47;;;;;;;10.46;91.24;100400.69;1725072;80;21330;-69
2021/04/24 13:52:46;;;;;;;7.47;1.90;;;;;;;10.57;82.58;100399.91;1738171;80;21519;-75
2021/04/24 13:55:19;;;;;;;2.73;1.60;;;;;;;10.66;76.91;100399.66;1749424;80;21073;-72
2021/04/24 13:57:45;;;;;;;3.65;1.52;;;;;;;10.81;77.94;100400.16;1747053;80;21269;-73
2021/04/24 14:00:15;;;;;;;4.53;1.87;;;;;;;10.96;79.46;100403.06;1736622;80;20935;-72
2021/04/24 14:02:46;;;;;;;3.60;1.70;;;;;;;11.00;80.84;100414.44;1747632;80;21204;-75
2021/04/24 14:05:14;;;;;;;3.80;1.73;;;;;;;10.88;83.45;100418.81;1754075;79;21519;-71
2021/04/24 14:07:44;;;;;;;4.30;2.10;;;;;;;10.68;87.65;100414.64;1738015;80;21749;-72
2021/04/24 14:10:12;;;;;;;4.90;2.20;;;;;;;10.51;92.79;100429.31;1725015;81;21690;-71
2021/04/24 14:12:40;;;;;;;3.53;1.77;;;;;;;10.30;96.44;100443.81;1715058;80;21449;-74
2021/04/24 14:15:15;;;;;;;3.00;1.70;;;;;;;10.11;100.00;100446.88;1743552;79;21888;-72
2021/04/24 14:17:44;;;;;;;3.43;1.90;;;;;;;9.92;100.00;100446.37;1700626;79;21309;-68
2021/04/24 14:20:15;;;;;;;3.60;2.37;;;;;;;9.67;100.00;100466.56;1738132;80;21328;-76
2021/04/24 14:22:44;;;;;;;4.50;2.77;;;;;;;9.34;100.00;100483.31;1743704;80;21294;-72
2021/04/24 14:25:13;;;;;;;4.67;2.90;;;;;;;8.97;100.00;100467.34;1744176;81;21249;-74
2021/04/24 14:27:42;;;;;;;3.75;2.60;;;;;;;8.67;100.00;100477.97;1748654;79;21366;-74
2021/04/24 14:30:13;;;;;;;4.30;2.60;;;;;;;8.53;100.00;100459.17;1744981;81;21856;-71
2021/04/24 14:32:42;;;;;;;4.90;3.15;;;;;;;8.51;100.00;100459.32;1753912;80;21324;-74
2021/04/24 14:35:12;;;;;;;4.03;2.40;;;;;;;8.53;100.00;100453.48;1752538;78;21642;-75
2021/04/24 14:37:44;;;;;;;3.70;2.47;;;;;;;8.55;100.00;100449.41;1732102;80;22099;-74
2021/04/24 14:40:14;;;;;;;4.80;2.97;;;;;;;8.47;100.00;100454.13;1793141;79;21515;-71
2021/04/24 14:42:42;;;;;;;4.55;2.75;;;;;;;8.38;100.00;100457.73;1760979;79;21447;-73
2021/04/24 14:45:12;;;;;;;5.00;3.02;;;;;;;8.29;100.00;100456.06;1744100;80;20955;-75
2021/04/24 14:47:40;;;;;;;6.50;2.72;;;;;;;8.23;100.00;100456.73;1787347;77;21229;-72